Time,TemperatureF,DewpointF,PressureIn,WindDirection,WindDirectionDegrees,WindSpeedMPH,WindSpeedGustMPH,Humidity,HourlyPrecipIn,Conditions,Clouds,dailyrainin,SoftwareType,DateUTC
2013-06-10 00:01:00,67.2,65.4,30.02,NNW,344,0.0,1.0,94,0.07,,,0.01,WUHU216DAVISVP2,2013-06-10 04:01:00,
2013-06-10 00:02:00,67.2,65.4,30.02,NNW,345,0.0,1.0,94,0.07,,,0.01,WUHU216DAVISVP2,2013-06-10 04:02:00,
2013-06-10 00:07:00,67.2,65.4,30.01,NNW,345,0.0,1.0,94,0.04,,,0.01,WUHU216DAVISVP2,2013-06-10 04:07:00,
2013-06-10 00:12:00,67.2,65.4,30.01,NNW,344,0.0,0.0,94,0.04,,,0.01,WUHU216DAVISVP2,2013-06-10 04:12:00,
2013-06-10 00:17:00,67.1,65.3,30.01,NNW,344,0.0,0.0,94,0.03,,,0.01,WUHU216DAVISVP2,2013-06-10 04:17:00,
2013-06-10 00:22:00,67.0,65.2,30.01,NNW,345,0.0,0.0,94,0.03,,,0.01,WUHU216DAVISVP2,2013-06-10 04:22:00,
2013-06-10 00:27:00,66.9,65.1,30.00,NNW,345,0.0,0.0,94,0.03,,,0.01,WUHU216DAVISVP2,2013-06-10 04:27:00,
2013-06-10 00:32:00,66.9,65.1,30.00,NNW,345,0.0,0.0,94,0.02,,,0.01,WUHU216DAVISVP2,2013-06-10 04:32:00,
2013-06-10 00:37:00,67.0,65.2,30.00,NNW,345,1.0,1.0,94,0.01,,,0.01,WUHU216DAVISVP2,2013-06-10 04:37:00,
2013-06-10 00:42:00,67.0,65.2,30.00,NNW,345,0.0,1.0,94,0.01,,,0.01,WUHU216DAVISVP2,2013-06-10 04:42:00,
2013-06-10 00:47:00,66.9,65.1,29.99,NNW,344,0.0,1.0,94,0.01,,,0.01,WUHU216DAVISVP2,2013-06-10 04:47:00,
2013-06-10 00:52:00,67.0,65.2,29.99,NNW,344,0.0,1.0,94,0.01,,,0.01,WUHU216DAVISVP2,2013-06-10 04:52:00,
2013-06-10 00:57:00,67.2,65.4,29.99,NNW,333,1.0,1.0,94,0.01,,,0.01,WUHU216DAVISVP2,2013-06-10 04:57:00,
2013-06-10 01:02:00,67.2,65.4,29.99,NNW,331,0.0,1.0,94,0.00,,,0.01,WUHU216DAVISVP2,2013-06-10 05:02:00,
2013-06-10 01:07:00,66.9,65.1,29.99,NNW,332,0.0,1.0,94,0.00,,,0.01,WUHU216DAVISVP2,2013-06-10 05:07:00,
2013-06-10 01:12:00,66.8,65.0,29.98,NNW,332,0.0,1.0,94,0.00,,,0.01,WUHU216DAVISVP2,2013-06-10 05:12:00,
2013-06-10 01:17:00,66.8,65.0,29.98,NNW,331,0.0,1.0,94,0.00,,,0.01,WUHU216DAVISVP2,2013-06-10 05:17:00,
2013-06-10 01:22:00,67.1,65.3,29.98,SSE,163,2.0,2.0,94,0.00,,,0.01,WUHU216DAVISVP2,2013-06-10 05:22:00,
2013-06-10 01:27:00,67.1,65.3,29.98,SE,134,0.0,2.0,94,0.00,,,0.01,WUHU216DAVISVP2,2013-06-10 05:27:00,
2013-06-10 01:32:00,67.2,65.4,29.97,SSE,168,0.0,2.0,94,0.00,,,0.01,WUHU216DAVISVP2,2013-06-10 05:32:00,
2013-06-10 01:37:00,67.0,65.2,29.97,SSE,168,0.0,2.0,94,0.00,,,0.01,WUHU216DAVISVP2,2013-06-10 05:37:00,
2013-06-10 01:42:00,66.8,65.0,29.97,SSE,167,0.0,1.0,94,0.00,,,0.01,WUHU216DAVISVP2,2013-06-10 05:42:00,
2013-06-10 01:47:00,66.7,65.2,29.96,SSE,167,0.0,1.0,95,0.00,,,0.01,WUHU216DAVISVP2,2013-06-10 05:47:00,
2013-06-10 01:52:00,66.6,64.8,29.96,SSE,168,0.0,0.0,94,0.00,,,0.01,WUHU216DAVISVP2,2013-06-10 05:52:00,
2013-06-10 01:57:00,66.6,64.8,29.96,SSE,167,0.0,0.0,94,0.00,,,0.01,WUHU216DAVISVP2,2013-06-10 05:57:00,
2013-06-10 02:02:00,66.5,65.0,29.96,SSE,167,0.0,0.0,95,0.00,,,0.01,WUHU216DAVISVP2,2013-06-10 06:02:00,
2013-06-10 02:07:00,66.6,64.8,29.96,SSE,167,0.0,0.0,94,0.00,,,0.01,WUHU216DAVISVP2,2013-06-10 06:07:00,
2013-06-10 02:12:00,66.5,65.0,29.96,SSE,168,0.0,0.0,95,0.00,,,0.01,WUHU216DAVISVP2,2013-06-10 06:12:00,
2013-06-10 02:17:00,66.5,65.0,29.96,SSE,167,0.0,0.0,95,0.01,,,0.02,WUHU216DAVISVP2,2013-06-10 06:17:00,
2013-06-10 02:22:00,66.5,65.0,29.95,SSE,167,0.0,0.0,95,0.01,,,0.02,WUHU216DAVISVP2,2013-06-10 06:22:00,
2013-06-10 02:27:00,66.6,64.8,29.95,SSE,167,0.0,0.0,94,0.01,,,0.02,WUHU216DAVISVP2,2013-06-10 06:27:00,
2013-06-10 02:32:00,66.6,64.8,29.95,SSE,168,0.0,0.0,94,0.01,,,0.02,WUHU216DAVISVP2,2013-06-10 06:32:00,
2013-06-10 02:37:00,66.6,64.8,29.95,SSE,167,0.0,0.0,94,0.01,,,0.02,WUHU216DAVISVP2,2013-06-10 06:37:00,
2013-06-10 02:42:00,66.6,64.8,29.95,SSE,168,0.0,0.0,94,0.01,,,0.02,WUHU216DAVISVP2,2013-06-10 06:42:00,
2013-06-10 02:47:00,66.7,64.9,29.95,SSE,168,0.0,0.0,94,0.02,,,0.03,WUHU216DAVISVP2,2013-06-10 06:47:00,
2013-06-10 02:52:00,66.5,65.0,29.94,SSE,167,0.0,0.0,95,0.02,,,0.03,WUHU216DAVISVP2,2013-06-10 06:52:00,
2013-06-10 02:57:00,66.5,65.0,29.94,SSE,168,0.0,1.0,95,0.03,,,0.04,WUHU216DAVISVP2,2013-06-10 06:57:00,
2013-06-10 03:02:00,66.5,65.0,29.93,SSE,167,0.0,1.0,95,0.03,,,0.04,WUHU216DAVISVP2,2013-06-10 07:02:00,
2013-06-10 03:07:00,66.6,64.8,29.92,SSE,167,0.0,1.0,94,0.03,,,0.04,WUHU216DAVISVP2,2013-06-10 07:07:00,
2013-06-10 03:12:00,66.7,64.9,29.92,South,187,0.0,1.0,94,0.03,,,0.04,WUHU216DAVISVP2,2013-06-10 07:12:00,
2013-06-10 03:17:00,66.8,65.0,29.92,SW,229,1.0,1.0,94,0.02,,,0.04,WUHU216DAVISVP2,2013-06-10 07:17:00,
2013-06-10 03:22:00,66.8,65.0,29.92,South,172,0.0,1.0,94,0.02,,,0.04,WUHU216DAVISVP2,2013-06-10 07:22:00,
2013-06-10 03:27:00,66.7,65.2,29.92,ESE,106,0.0,1.0,95,0.02,,,0.04,WUHU216DAVISVP2,2013-06-10 07:27:00,
2013-06-10 03:32:00,66.4,64.9,29.92,ESE,104,0.0,1.0,95,0.02,,,0.04,WUHU216DAVISVP2,2013-06-10 07:32:00,
2013-06-10 03:37:00,66.3,64.8,29.91,ESE,105,0.0,1.0,95,0.02,,,0.04,WUHU216DAVISVP2,2013-06-10 07:37:00,
2013-06-10 03:42:00,66.3,64.8,29.91,SSW,203,0.0,1.0,95,0.02,,,0.04,WUHU216DAVISVP2,2013-06-10 07:42:00,
2013-06-10 03:47:00,66.3,64.8,29.91,SSW,203,0.0,1.0,95,0.01,,,0.04,WUHU216DAVISVP2,2013-06-10 07:47:00,
2013-06-10 03:52:00,66.3,64.8,29.91,SSW,203,0.0,1.0,95,0.00,,,0.04,WUHU216DAVISVP2,2013-06-10 07:52:00,
2013-06-10 03:57:00,66.0,64.5,29.90,SSW,203,0.0,1.0,95,0.00,,,0.04,WUHU216DAVISVP2,2013-06-10 07:57:00,
2013-06-10 04:02:00,65.8,64.3,29.90,SSW,203,0.0,1.0,95,0.00,,,0.04,WUHU216DAVISVP2,2013-06-10 08:02:00,
2013-06-10 04:07:00,65.7,64.2,29.90,SSW,203,0.0,0.0,95,0.00,,,0.04,WUHU216DAVISVP2,2013-06-10 08:07:00,
2013-06-10 04:12:00,65.7,64.2,29.90,SSW,203,0.0,0.0,95,0.00,,,0.04,WUHU216DAVISVP2,2013-06-10 08:12:00,
2013-06-10 04:17:00,65.6,64.1,29.90,SSW,203,0.0,0.0,95,0.00,,,0.04,WUHU216DAVISVP2,2013-06-10 08:17:00,
2013-06-10 04:22:00,65.6,64.1,29.90,SSW,203,0.0,0.0,95,0.00,,,0.04,WUHU216DAVISVP2,2013-06-10 08:22:00,
2013-06-10 04:27:00,65.5,64.0,29.90,SSW,203,0.0,0.0,95,0.00,,,0.04,WUHU216DAVISVP2,2013-06-10 08:27:00,
2013-06-10 04:32:00,65.5,64.0,29.89,SSW,203,0.0,1.0,95,0.00,,,0.04,WUHU216DAVISVP2,2013-06-10 08:32:00,
2013-06-10 04:37:00,65.6,64.1,29.89,SSW,203,0.0,1.0,95,0.00,,,0.04,WUHU216DAVISVP2,2013-06-10 08:37:00,
2013-06-10 04:42:00,65.6,64.1,29.89,SSW,203,0.0,1.0,95,0.00,,,0.04,WUHU216DAVISVP2,2013-06-10 08:42:00,
2013-06-10 04:47:00,65.6,64.1,29.89,SSW,203,0.0,1.0,95,0.00,,,0.04,WUHU216DAVISVP2,2013-06-10 08:47:00,
2013-06-10 04:52:00,65.6,64.1,29.89,SSW,203,0.0,0.0,95,0.00,,,0.04,WUHU216DAVISVP2,2013-06-10 08:52:00,
2013-06-10 04:57:00,65.6,64.1,29.89,SSW,201,0.0,0.0,95,0.00,,,0.04,WUHU216DAVISVP2,2013-06-10 08:57:00,
2013-06-10 05:02:00,65.6,64.1,29.89,SSW,201,0.0,0.0,95,0.00,,,0.04,WUHU216DAVISVP2,2013-06-10 09:02:00,
2013-06-10 05:07:00,65.6,64.1,29.89,SSW,201,0.0,0.0,95,0.00,,,0.04,WUHU216DAVISVP2,2013-06-10 09:07:00,
2013-06-10 05:12:00,65.5,64.0,29.89,SSW,201,0.0,0.0,95,0.00,,,0.04,WUHU216DAVISVP2,2013-06-10 09:12:00,
2013-06-10 05:17:00,65.4,63.9,29.89,SSW,201,0.0,0.0,95,0.00,,,0.04,WUHU216DAVISVP2,2013-06-10 09:17:00,
2013-06-10 05:22:00,65.3,63.8,29.89,SSW,201,0.0,0.0,95,0.00,,,0.04,WUHU216DAVISVP2,2013-06-10 09:22:00,
2013-06-10 05:27:00,65.3,63.8,29.89,SSW,201,0.0,1.0,95,0.00,,,0.04,WUHU216DAVISVP2,2013-06-10 09:27:00,
2013-06-10 05:32:00,65.4,63.9,29.89,SSW,200,0.0,1.0,95,0.01,,,0.05,WUHU216DAVISVP2,2013-06-10 09:32:00,
2013-06-10 05:37:00,65.4,63.9,29.89,SSW,200,0.0,1.0,95,0.01,,,0.05,WUHU216DAVISVP2,2013-06-10 09:37:00,
2013-06-10 05:42:00,65.5,64.0,29.89,SE,131,1.0,1.0,95,0.01,,,0.05,WUHU216DAVISVP2,2013-06-10 09:42:00,
2013-06-10 05:47:00,65.6,64.1,29.89,SE,131,0.0,1.0,95,0.01,,,0.05,WUHU216DAVISVP2,2013-06-10 09:47:00,
2013-06-10 05:52:00,65.5,64.0,29.89,SE,131,0.0,1.0,95,0.01,,,0.05,WUHU216DAVISVP2,2013-06-10 09:52:00,
2013-06-10 05:57:00,65.4,63.9,29.89,SE,131,0.0,1.0,95,0.01,,,0.05,WUHU216DAVISVP2,2013-06-10 09:57:00,
2013-06-10 06:02:00,65.3,63.8,29.88,SE,131,0.0,1.0,95,0.01,,,0.05,WUHU216DAVISVP2,2013-06-10 10:02:00,
2013-06-10 06:07:00,65.4,63.9,29.88,SE,131,0.0,1.0,95,0.01,,,0.05,WUHU216DAVISVP2,2013-06-10 10:07:00,
2013-06-10 06:12:00,65.5,64.0,29.88,SE,131,0.0,1.0,95,0.01,,,0.05,WUHU216DAVISVP2,2013-06-10 10:12:00,
2013-06-10 06:17:00,65.5,63.7,29.88,SE,131,0.0,1.0,94,0.01,,,0.05,WUHU216DAVISVP2,2013-06-10 10:17:00,
2013-06-10 06:22:00,65.5,64.0,29.88,SE,131,0.0,1.0,95,0.01,,,0.05,WUHU216DAVISVP2,2013-06-10 10:22:00,
2013-06-10 06:27:00,65.5,64.0,29.88,SE,131,0.0,1.0,95,0.01,,,0.05,WUHU216DAVISVP2,2013-06-10 10:27:00,
2013-06-10 06:32:00,65.6,64.1,29.88,SE,131,0.0,1.0,95,0.00,,,0.05,WUHU216DAVISVP2,2013-06-10 10:32:00,
2013-06-10 06:37:00,65.6,64.1,29.88,SE,131,0.0,1.0,95,0.00,,,0.05,WUHU216DAVISVP2,2013-06-10 10:37:00,
2013-06-10 06:42:00,65.6,64.1,29.88,SE,131,0.0,0.0,95,0.00,,,0.05,WUHU216DAVISVP2,2013-06-10 10:42:00,
2013-06-10 06:47:00,65.7,64.2,29.88,SE,131,1.0,1.0,95,0.00,,,0.05,WUHU216DAVISVP2,2013-06-10 10:47:00,
2013-06-10 06:52:00,65.8,64.0,29.88,SE,131,1.0,1.0,94,0.00,,,0.05,WUHU216DAVISVP2,2013-06-10 10:52:00,
2013-06-10 06:57:00,65.9,64.4,29.88,SE,131,0.0,1.0,95,0.00,,,0.05,WUHU216DAVISVP2,2013-06-10 10:57:00,
2013-06-10 07:02:00,66.0,64.2,29.88,SE,131,0.0,1.0,94,0.00,,,0.05,WUHU216DAVISVP2,2013-06-10 11:02:00,
2013-06-10 07:07:00,66.0,64.2,29.88,SE,131,0.0,1.0,94,0.01,,,0.06,WUHU216DAVISVP2,2013-06-10 11:07:00,
2013-06-10 07:12:00,66.2,64.4,29.88,SE,131,0.0,1.0,94,0.01,,,0.06,WUHU216DAVISVP2,2013-06-10 11:12:00,
2013-06-10 07:17:00,66.2,64.4,29.88,SE,131,0.0,1.0,94,0.01,,,0.06,WUHU216DAVISVP2,2013-06-10 11:17:00,
2013-06-10 07:22:00,66.2,64.7,29.88,SE,131,0.0,1.0,95,0.01,,,0.06,WUHU216DAVISVP2,2013-06-10 11:22:00,
2013-06-10 07:27:00,66.3,64.8,29.88,SE,131,0.0,1.0,95,0.01,,,0.06,WUHU216DAVISVP2,2013-06-10 11:27:00,
2013-06-10 07:32:00,66.4,64.9,29.88,SE,131,0.0,0.0,95,0.01,,,0.06,WUHU216DAVISVP2,2013-06-10 11:32:00,
2013-06-10 07:37:00,66.5,65.0,29.87,SE,131,0.0,0.0,95,0.01,,,0.06,WUHU216DAVISVP2,2013-06-10 11:37:00,
2013-06-10 07:42:00,66.6,64.8,29.87,SE,131,0.0,0.0,94,0.01,,,0.06,WUHU216DAVISVP2,2013-06-10 11:42:00,
2013-06-10 07:47:00,66.7,65.2,29.87,SE,131,0.0,0.0,95,0.01,,,0.06,WUHU216DAVISVP2,2013-06-10 11:47:00,
2013-06-10 07:52:00,66.8,65.0,29.87,SE,131,0.0,0.0,94,0.01,,,0.06,WUHU216DAVISVP2,2013-06-10 11:52:00,
2013-06-10 07:58:00,66.9,65.4,29.87,SE,131,0.0,0.0,95,0.01,,,0.06,WUHU216DAVISVP2,2013-06-10 11:58:00,
2013-06-10 08:03:00,67.0,65.5,29.87,SE,131,0.0,0.0,95,0.01,,,0.06,WUHU216DAVISVP2,2013-06-10 12:03:00,
2013-06-10 08:08:00,67.3,65.5,29.87,SE,131,0.0,0.0,94,0.00,,,0.06,WUHU216DAVISVP2,2013-06-10 12:08:00,
2013-06-10 08:13:00,67.4,65.6,29.87,SE,131,0.0,0.0,94,0.00,,,0.06,WUHU216DAVISVP2,2013-06-10 12:13:00,
2013-06-10 08:18:00,67.6,66.1,29.87,SE,131,0.0,0.0,95,0.00,,,0.06,WUHU216DAVISVP2,2013-06-10 12:18:00,
2013-06-10 08:23:00,67.7,66.2,29.87,SE,131,0.0,1.0,95,0.00,,,0.06,WUHU216DAVISVP2,2013-06-10 12:23:00,
2013-06-10 08:28:00,68.3,66.5,29.87,SE,131,0.0,1.0,94,0.00,,,0.06,WUHU216DAVISVP2,2013-06-10 12:28:00,
2013-06-10 08:33:00,68.4,66.9,29.86,SSE,150,0.0,1.0,95,0.00,,,0.06,WUHU216DAVISVP2,2013-06-10 12:33:00,
2013-06-10 08:38:00,68.6,67.1,29.87,SSE,149,0.0,1.0,95,0.00,,,0.06,WUHU216DAVISVP2,2013-06-10 12:38:00,
2013-06-10 08:43:00,68.8,67.3,29.86,SSE,150,0.0,1.0,95,0.00,,,0.06,WUHU216DAVISVP2,2013-06-10 12:43:00,
2013-06-10 08:48:00,68.9,67.4,29.86,SSE,150,0.0,1.0,95,0.00,,,0.06,WUHU216DAVISVP2,2013-06-10 12:48:00,
2013-06-10 08:53:00,69.0,67.5,29.86,SSE,149,0.0,1.0,95,0.00,,,0.06,WUHU216DAVISVP2,2013-06-10 12:53:00,
2013-06-10 08:58:00,69.2,67.7,29.87,SSE,165,0.0,1.0,95,0.00,,,0.06,WUHU216DAVISVP2,2013-06-10 12:58:00,
2013-06-10 09:03:00,69.2,67.7,29.86,SSE,165,0.0,1.0,95,0.00,,,0.06,WUHU216DAVISVP2,2013-06-10 13:03:00,
2013-06-10 09:08:00,69.3,67.8,29.86,SSE,165,0.0,1.0,95,0.00,,,0.06,WUHU216DAVISVP2,2013-06-10 13:08:00,
2013-06-10 09:13:00,69.4,67.9,29.86,SSE,165,0.0,1.0,95,0.00,,,0.06,WUHU216DAVISVP2,2013-06-10 13:13:00,
2013-06-10 09:18:00,69.6,68.1,29.87,SSE,165,0.0,1.0,95,0.00,,,0.06,WUHU216DAVISVP2,2013-06-10 13:18:00,
2013-06-10 09:23:00,69.6,68.1,29.87,SSE,165,0.0,1.0,95,0.00,,,0.06,WUHU216DAVISVP2,2013-06-10 13:23:00,
2013-06-10 09:28:00,69.7,68.2,29.86,SSE,165,0.0,1.0,95,0.00,,,0.06,WUHU216DAVISVP2,2013-06-10 13:28:00,
2013-06-10 09:33:00,70.0,68.5,29.86,SSE,165,0.0,1.0,95,0.00,,,0.06,WUHU216DAVISVP2,2013-06-10 13:33:00,
2013-06-10 09:38:00,70.3,68.8,29.86,SSE,165,0.0,1.0,95,0.00,,,0.06,WUHU216DAVISVP2,2013-06-10 13:38:00,
2013-06-10 09:43:00,70.7,69.2,29.86,SSE,165,0.0,1.0,95,0.00,,,0.06,WUHU216DAVISVP2,2013-06-10 13:43:00,
2013-06-10 09:48:00,71.1,69.6,29.86,SSE,165,1.0,1.0,95,0.00,,,0.06,WUHU216DAVISVP2,2013-06-10 13:48:00,
2013-06-10 09:53:00,71.5,70.0,29.85,SW,221,1.0,1.0,95,0.00,,,0.06,WUHU216DAVISVP2,2013-06-10 13:53:00,
2013-06-10 09:58:00,71.9,70.4,29.86,SE,129,0.0,1.0,95,0.00,,,0.06,WUHU216DAVISVP2,2013-06-10 13:58:00,
2013-06-10 10:03:00,72.6,70.7,29.85,ESE,118,1.0,2.0,94,0.00,,,0.06,WUHU216DAVISVP2,2013-06-10 14:03:00,
2013-06-10 10:08:00,73.4,70.9,29.85,NNW,332,2.0,2.0,92,0.00,,,0.06,WUHU216DAVISVP2,2013-06-10 14:08:00,
2013-06-10 10:13:00,73.7,70.9,29.85,East,82,1.1,3.0,91,0.00,,,0.06,WUHU216DAVISVP2,2013-06-10 14:13:00,
2013-06-10 10:18:00,74.0,71.5,29.85,ENE,72,1.2,3.0,92,0.00,,,0.06,WUHU216DAVISVP2,2013-06-10 14:18:00,
2013-06-10 10:23:00,74.0,70.5,29.85,NE,39,1.0,3.0,89,0.00,,,0.06,WUHU216DAVISVP2,2013-06-10 14:23:00,
2013-06-10 10:28:00,74.3,70.8,29.85,NE,39,1.0,3.0,89,0.00,,,0.06,WUHU216DAVISVP2,2013-06-10 14:28:00,
2013-06-10 10:33:00,74.6,70.5,29.85,NNE,13,1.1,2.0,87,0.00,,,0.06,WUHU216DAVISVP2,2013-06-10 14:33:00,
2013-06-10 10:38:00,74.7,70.3,29.85,NW,308,2.0,3.0,86,0.00,,,0.06,WUHU216DAVISVP2,2013-06-10 14:38:00,
2013-06-10 10:43:00,74.9,70.5,29.85,SW,229,1.3,4.0,86,0.00,,,0.06,WUHU216DAVISVP2,2013-06-10 14:43:00,
2013-06-10 10:48:00,75.0,69.5,29.85,North,0,1.0,4.0,83,0.00,,,0.06,WUHU216DAVISVP2,2013-06-10 14:48:00,
2013-06-10 10:53:00,75.1,70.0,29.85,SE,127,3.0,4.0,84,0.00,,,0.06,WUHU216DAVISVP2,2013-06-10 14:53:00,
2013-06-10 10:58:00,74.6,68.8,29.85,SW,229,2.5,11.0,82,0.00,,,0.06,WUHU216DAVISVP2,2013-06-10 14:58:00,
2013-06-10 11:03:00,74.3,69.5,29.85,East,99,1.7,11.0,85,0.00,,,0.06,WUHU216DAVISVP2,2013-06-10 15:03:00,
2013-06-10 11:08:00,74.2,69.4,29.85,South,190,1.4,10.0,85,0.00,,,0.06,WUHU216DAVISVP2,2013-06-10 15:08:00,
2013-06-10 11:13:00,74.5,69.4,29.85,ESE,108,2.0,6.0,84,0.00,,,0.06,WUHU216DAVISVP2,2013-06-10 15:13:00,
2013-06-10 11:18:00,74.6,69.5,29.85,SE,125,1.8,7.0,84,0.00,,,0.06,WUHU216DAVISVP2,2013-06-10 15:18:00,
2013-06-10 11:23:00,74.7,69.3,29.85,NNE,33,2.0,7.0,83,0.00,,,0.06,WUHU216DAVISVP2,2013-06-10 15:23:00,
2013-06-10 11:28:00,75.1,70.0,29.85,WSW,237,2.1,6.0,84,0.00,,,0.06,WUHU216DAVISVP2,2013-06-10 15:28:00,
2013-06-10 11:33:00,75.3,68.8,29.85,SE,131,3.9,7.0,80,0.00,,,0.06,WUHU216DAVISVP2,2013-06-10 15:33:00,
2013-06-10 11:38:00,75.2,69.7,29.85,WSW,243,1.0,7.0,83,0.01,,,0.07,WUHU216DAVISVP2,2013-06-10 15:38:00,
2013-06-10 11:43:00,75.0,69.9,29.85,NE,38,2.3,8.0,84,0.01,,,0.07,WUHU216DAVISVP2,2013-06-10 15:43:00,
2013-06-10 11:48:00,74.9,69.4,29.85,ENE,70,2.0,8.0,83,0.01,,,0.07,WUHU216DAVISVP2,2013-06-10 15:48:00,
2013-06-10 11:53:00,74.9,70.1,29.84,ESE,107,1.1,8.0,85,0.01,,,0.07,WUHU216DAVISVP2,2013-06-10 15:53:00,
2013-06-10 11:58:00,75.0,69.5,29.84,ESE,104,1.3,7.0,83,0.01,,,0.07,WUHU216DAVISVP2,2013-06-10 15:58:00,
2013-06-10 12:03:00,75.1,69.6,29.84,ESE,104,2.0,4.0,83,0.01,,,0.07,WUHU216DAVISVP2,2013-06-10 16:03:00,
2013-06-10 12:08:00,75.3,69.8,29.84,ESE,122,5.0,6.0,83,0.01,,,0.07,WUHU216DAVISVP2,2013-06-10 16:08:00,
2013-06-10 12:13:00,75.1,69.0,29.83,SSW,201,1.9,7.0,81,0.01,,,0.07,WUHU216DAVISVP2,2013-06-10 16:13:00,
2013-06-10 12:18:00,75.5,69.7,29.83,ESE,104,2.6,7.0,82,0.01,,,0.07,WUHU216DAVISVP2,2013-06-10 16:18:00,
2013-06-10 12:23:00,76.2,70.0,29.84,West,264,1.3,7.0,81,0.01,,,0.07,WUHU216DAVISVP2,2013-06-10 16:23:00,
2013-06-10 12:28:00,77.1,70.6,29.84,ENE,75,1.0,7.0,80,0.01,,,0.07,WUHU216DAVISVP2,2013-06-10 16:28:00,
2013-06-10 12:33:00,78.0,71.8,29.83,NW,322,3.0,7.0,81,0.01,,,0.07,WUHU216DAVISVP2,2013-06-10 16:33:00,
2013-06-10 12:38:00,78.5,70.5,29.83,WSW,250,2.0,5.0,76,0.00,,,0.07,WUHU216DAVISVP2,2013-06-10 16:38:00,
2013-06-10 12:43:00,78.6,70.9,29.83,East,89,1.7,6.0,77,0.00,,,0.07,WUHU216DAVISVP2,2013-06-10 16:43:00,
2013-06-10 12:48:00,78.0,69.2,29.85,NNE,18,6.0,10.0,74,0.00,,,0.07,WUHU216DAVISVP2,2013-06-10 16:48:00,
2013-06-10 12:53:00,74.3,63.3,29.87,West,273,7.8,16.0,68,0.00,,,0.07,WUHU216DAVISVP2,2013-06-10 16:53:00,
2013-06-10 12:58:00,70.2,62.8,29.87,WSW,256,4.6,16.0,77,0.02,,,0.09,WUHU216DAVISVP2,2013-06-10 16:58:00,
2013-06-10 13:03:00,68.4,63.1,29.87,WSW,242,5.0,15.0,83,0.03,,,0.10,WUHU216DAVISVP2,2013-06-10 17:03:00,
2013-06-10 13:08:00,67.6,62.3,29.87,West,259,4.8,15.0,83,0.03,,,0.10,WUHU216DAVISVP2,2013-06-10 17:08:00,
2013-06-10 13:13:00,67.2,62.6,29.88,West,260,5.2,12.0,85,0.03,,,0.10,WUHU216DAVISVP2,2013-06-10 17:13:00,
2013-06-10 13:18:00,67.0,62.4,29.87,WSW,256,3.9,12.0,85,0.03,,,0.10,WUHU216DAVISVP2,2013-06-10 17:18:00,
2013-06-10 13:23:00,67.0,63.0,29.87,WSW,250,3.0,12.0,87,0.03,,,0.10,WUHU216DAVISVP2,2013-06-10 17:23:00,
2013-06-10 13:28:00,67.0,63.3,29.87,WSW,250,1.9,11.0,88,0.03,,,0.10,WUHU216DAVISVP2,2013-06-10 17:28:00,
2013-06-10 13:33:00,66.9,62.9,29.87,West,280,1.6,7.0,87,0.04,,,0.11,WUHU216DAVISVP2,2013-06-10 17:33:00,
2013-06-10 13:38:00,66.9,63.9,29.86,West,261,1.1,4.0,90,0.04,,,0.11,WUHU216DAVISVP2,2013-06-10 17:38:00,
2013-06-10 13:43:00,67.0,63.9,29.86,NNE,22,1.1,4.0,90,0.04,,,0.11,WUHU216DAVISVP2,2013-06-10 17:43:00,
2013-06-10 13:48:00,67.5,64.4,29.85,NNW,332,1.5,2.0,90,0.04,,,0.11,WUHU216DAVISVP2,2013-06-10 17:48:00,
2013-06-10 13:53:00,68.0,64.3,29.85,SE,126,1.1,2.0,88,0.04,,,0.11,WUHU216DAVISVP2,2013-06-10 17:53:00,
2013-06-10 13:58:00,68.4,64.1,29.85,ESE,121,1.9,4.0,86,0.02,,,0.11,WUHU216DAVISVP2,2013-06-10 17:58:00,
2013-06-10 14:03:00,68.7,63.7,29.85,ENE,75,1.1,4.0,84,0.01,,,0.11,WUHU216DAVISVP2,2013-06-10 18:03:00,
2013-06-10 14:08:00,68.7,64.0,29.85,NE,51,1.1,3.0,85,0.01,,,0.11,WUHU216DAVISVP2,2013-06-10 18:08:00,
2013-06-10 14:13:00,69.0,64.3,29.86,WNW,282,1.5,3.0,85,0.01,,,0.11,WUHU216DAVISVP2,2013-06-10 18:13:00,
2013-06-10 14:18:00,69.6,64.6,29.86,East,84,2.0,3.0,84,0.01,,,0.11,WUHU216DAVISVP2,2013-06-10 18:18:00,
2013-06-10 14:23:00,69.8,64.8,29.86,WSW,252,1.0,4.0,84,0.01,,,0.11,WUHU216DAVISVP2,2013-06-10 18:23:00,
2013-06-10 14:28:00,69.6,63.9,29.85,WNW,297,2.0,4.0,82,0.01,,,0.11,WUHU216DAVISVP2,2013-06-10 18:28:00,
2013-06-10 14:33:00,69.3,64.0,29.85,WSW,238,1.7,4.0,83,0.00,,,0.11,WUHU216DAVISVP2,2013-06-10 18:33:00,
2013-06-10 14:38:00,69.7,64.7,29.84,East,88,1.0,4.0,84,0.00,,,0.11,WUHU216DAVISVP2,2013-06-10 18:38:00,
2013-06-10 14:43:00,70.3,64.6,29.84,SE,146,1.1,4.0,82,0.00,,,0.11,WUHU216DAVISVP2,2013-06-10 18:43:00,
2013-06-10 14:48:00,70.7,65.0,29.85,NE,55,1.5,3.0,82,0.00,,,0.11,WUHU216DAVISVP2,2013-06-10 18:48:00,
2013-06-10 14:53:00,70.9,65.2,29.84,East,94,3.3,6.0,82,0.00,,,0.11,WUHU216DAVISVP2,2013-06-10 18:53:00,
2013-06-10 14:58:00,71.3,64.9,29.85,West,272,1.8,6.0,80,0.00,,,0.11,WUHU216DAVISVP2,2013-06-10 18:58:00,
2013-06-10 15:03:00,71.1,64.4,29.84,SSE,168,1.6,6.0,79,0.00,,,0.11,WUHU216DAVISVP2,2013-06-10 19:03:00,
2013-06-10 15:08:00,71.2,64.5,29.85,WSW,238,5.0,6.0,79,0.00,,,0.11,WUHU216DAVISVP2,2013-06-10 19:08:00,
2013-06-10 15:13:00,71.1,64.0,29.85,ESE,119,1.8,6.0,78,0.00,,,0.11,WUHU216DAVISVP2,2013-06-10 19:13:00,
2013-06-10 15:18:00,71.1,64.0,29.85,WNW,285,2.0,6.0,78,0.00,,,0.11,WUHU216DAVISVP2,2013-06-10 19:18:00,
2013-06-10 15:23:00,71.1,65.0,29.85,West,279,0.0,6.0,81,0.00,,,0.11,WUHU216DAVISVP2,2013-06-10 19:23:00,
2013-06-10 15:28:00,71.1,63.6,29.84,SSE,168,2.5,4.0,77,0.00,,,0.11,WUHU216DAVISVP2,2013-06-10 19:28:00,
2013-06-10 15:33:00,71.2,64.5,29.85,South,179,1.5,5.0,79,0.00,,,0.11,WUHU216DAVISVP2,2013-06-10 19:33:00,
2013-06-10 15:38:00,71.7,65.6,29.84,WSW,256,1.0,5.0,81,0.00,,,0.11,WUHU216DAVISVP2,2013-06-10 19:38:00,
2013-06-10 15:43:00,72.3,65.2,29.84,NW,307,3.0,9.0,78,0.00,,,0.11,WUHU216DAVISVP2,2013-06-10 19:43:00,
2013-06-10 15:48:00,72.4,64.9,29.84,West,281,2.0,9.0,77,0.00,,,0.11,WUHU216DAVISVP2,2013-06-10 19:48:00,
2013-06-10 15:53:00,72.7,65.6,29.84,SSE,153,3.0,9.0,78,0.00,,,0.11,WUHU216DAVISVP2,2013-06-10 19:53:00,
2013-06-10 15:58:00,72.7,64.8,29.83,ESE,123,1.6,9.0,76,0.00,,,0.11,WUHU216DAVISVP2,2013-06-10 19:58:00,
2013-06-10 16:03:00,72.3,65.2,29.84,West,281,2.7,6.0,78,0.00,,,0.11,WUHU216DAVISVP2,2013-06-10 20:03:00,
2013-06-10 16:08:00,71.9,64.8,29.84,West,264,2.4,7.0,78,0.00,,,0.11,WUHU216DAVISVP2,2013-06-10 20:08:00,
2013-06-10 16:13:00,71.9,64.4,29.84,West,269,2.1,7.0,77,0.00,,,0.11,WUHU216DAVISVP2,2013-06-10 20:13:00,
2013-06-10 16:18:00,71.7,64.9,29.84,West,275,1.6,6.0,79,0.00,,,0.11,WUHU216DAVISVP2,2013-06-10 20:18:00,
2013-06-10 16:23:00,71.4,65.0,29.83,WSW,254,1.4,6.0,80,0.00,,,0.11,WUHU216DAVISVP2,2013-06-10 20:23:00,
2013-06-10 16:28:00,71.3,64.2,29.83,West,261,1.2,5.0,78,0.00,,,0.11,WUHU216DAVISVP2,2013-06-10 20:28:00,
2013-06-10 16:33:00,71.2,64.5,29.83,ESE,113,1.0,4.0,79,0.00,,,0.11,WUHU216DAVISVP2,2013-06-10 20:33:00,
2013-06-10 16:38:00,71.0,65.3,29.83,WSW,254,2.0,3.0,82,0.00,,,0.11,WUHU216DAVISVP2,2013-06-10 20:38:00,
2013-06-10 16:43:00,70.9,65.5,29.83,WSW,242,0.0,2.0,83,0.00,,,0.11,WUHU216DAVISVP2,2013-06-10 20:43:00,
2013-06-10 16:48:00,70.8,64.4,29.83,SE,124,1.2,3.0,80,0.00,,,0.11,WUHU216DAVISVP2,2013-06-10 20:48:00,
2013-06-10 16:53:00,71.1,65.0,29.83,ESE,109,1.0,3.0,81,0.00,,,0.11,WUHU216DAVISVP2,2013-06-10 20:53:00,
2013-06-10 16:58:00,71.3,65.2,29.83,West,277,1.0,3.0,81,0.00,,,0.11,WUHU216DAVISVP2,2013-06-10 20:58:00,
2013-06-10 17:03:00,71.8,65.4,29.83,SE,143,1.2,3.0,80,0.00,,,0.11,WUHU216DAVISVP2,2013-06-10 21:03:00,
2013-06-10 17:08:00,72.3,65.5,29.83,West,276,1.0,3.0,79,0.00,,,0.11,WUHU216DAVISVP2,2013-06-10 21:08:00,
2013-06-10 17:13:00,72.6,65.1,29.82,East,95,1.5,3.0,77,0.00,,,0.11,WUHU216DAVISVP2,2013-06-10 21:13:00,
2013-06-10 17:18:00,72.4,66.3,29.82,ENE,65,1.0,3.0,81,0.00,,,0.11,WUHU216DAVISVP2,2013-06-10 21:18:00,
2013-06-10 17:23:00,72.6,65.8,29.82,SSE,153,0.0,3.0,79,0.00,,,0.11,WUHU216DAVISVP2,2013-06-10 21:23:00,
2013-06-10 17:28:00,72.6,65.1,29.82,West,278,2.0,5.0,77,0.00,,,0.11,WUHU216DAVISVP2,2013-06-10 21:28:00,
2013-06-10 17:33:00,72.4,64.9,29.82,West,281,1.0,5.0,77,0.00,,,0.11,WUHU216DAVISVP2,2013-06-10 21:33:00,
2013-06-10 17:38:00,72.8,66.4,29.82,West,269,1.0,4.0,80,0.00,,,0.11,WUHU216DAVISVP2,2013-06-10 21:38:00,
2013-06-10 17:43:00,73.6,66.4,29.81,NNW,343,1.1,3.0,78,0.00,,,0.11,WUHU216DAVISVP2,2013-06-10 21:43:00,
2013-06-10 17:48:00,74.4,67.2,29.81,WSW,257,1.0,2.0,78,0.00,,,0.11,WUHU216DAVISVP2,2013-06-10 21:48:00,
2013-06-10 17:53:00,74.8,66.1,29.81,West,277,1.3,2.0,74,0.00,,,0.11,WUHU216DAVISVP2,2013-06-10 21:53:00,
2013-06-10 17:58:00,75.3,65.8,29.81,South,190,1.6,3.0,72,0.00,,,0.11,WUHU216DAVISVP2,2013-06-10 21:58:00,
2013-06-10 18:03:00,76.2,66.5,29.81,WSW,244,1.6,4.0,72,0.00,,,0.11,WUHU216DAVISVP2,2013-06-10 22:03:00,
2013-06-10 18:08:00,76.6,67.3,29.81,SW,226,1.2,4.0,73,0.00,,,0.11,WUHU216DAVISVP2,2013-06-10 22:08:00,
2013-06-10 18:13:00,76.0,65.9,29.81,West,264,2.0,4.0,71,0.00,,,0.11,WUHU216DAVISVP2,2013-06-10 22:13:00,
2013-06-10 18:18:00,75.9,66.6,29.81,West,259,1.0,4.0,73,0.00,,,0.11,WUHU216DAVISVP2,2013-06-10 22:18:00,
2013-06-10 18:23:00,76.0,65.9,29.81,West,266,3.0,4.0,71,0.00,,,0.11,WUHU216DAVISVP2,2013-06-10 22:23:00,
2013-06-10 18:28:00,75.3,65.6,29.81,WNW,284,1.4,4.0,72,0.00,,,0.11,WUHU216DAVISVP2,2013-06-10 22:28:00,
2013-06-10 18:33:00,75.5,66.6,29.81,WNW,294,2.0,4.0,74,0.00,,,0.11,WUHU216DAVISVP2,2013-06-10 22:33:00,
2013-06-10 18:38:00,75.7,66.0,29.81,ESE,103,2.0,6.0,72,0.00,,,0.11,WUHU216DAVISVP2,2013-06-10 22:38:00,
2013-06-10 18:43:00,75.0,65.4,29.81,NW,324,2.0,6.0,72,0.00,,,0.11,WUHU216DAVISVP2,2013-06-10 22:43:00,
2013-06-10 18:48:00,74.2,65.5,29.80,West,263,2.0,5.0,74,0.00,,,0.11,WUHU216DAVISVP2,2013-06-10 22:48:00,
2013-06-10 18:53:00,73.8,65.5,29.80,SSW,210,1.6,5.0,75,0.00,,,0.11,WUHU216DAVISVP2,2013-06-10 22:53:00,
2013-06-10 18:58:00,74.0,66.1,29.80,WSW,258,1.7,5.0,76,0.00,,,0.11,WUHU216DAVISVP2,2013-06-10 22:58:00,
2013-06-10 19:03:00,74.5,66.6,29.80,WNW,299,1.7,3.0,76,0.00,,,0.11,WUHU216DAVISVP2,2013-06-10 23:03:00,
2013-06-10 19:08:00,74.8,66.0,29.80,WNW,293,2.0,4.0,74,0.00,,,0.11,WUHU216DAVISVP2,2013-06-10 23:08:00,
2013-06-10 19:13:00,74.4,65.2,29.80,West,279,4.0,5.0,73,0.00,,,0.11,WUHU216DAVISVP2,2013-06-10 23:13:00,
2013-06-10 19:18:00,74.0,64.8,29.81,SSW,196,2.1,5.0,73,0.00,,,0.11,WUHU216DAVISVP2,2013-06-10 23:18:00,
2013-06-10 19:23:00,73.7,65.4,29.81,SW,218,1.0,5.0,75,0.00,,,0.11,WUHU216DAVISVP2,2013-06-10 23:23:00,
2013-06-10 19:28:00,73.3,65.3,29.81,West,273,0.0,5.0,76,0.00,,,0.11,WUHU216DAVISVP2,2013-06-10 23:28:00,
2013-06-10 19:33:00,73.5,66.6,29.81,West,273,0.0,4.0,79,0.00,,,0.11,WUHU216DAVISVP2,2013-06-10 23:33:00,
2013-06-10 19:38:00,73.5,66.3,29.82,West,273,0.0,2.0,78,0.00,,,0.11,WUHU216DAVISVP2,2013-06-10 23:38:00,
2013-06-10 19:43:00,72.8,65.9,29.82,NNW,335,1.0,1.0,79,0.00,,,0.11,WUHU216DAVISVP2,2013-06-10 23:43:00,
2013-06-10 19:48:00,71.8,66.1,29.81,ENE,69,1.2,2.0,82,0.00,,,0.11,WUHU216DAVISVP2,2013-06-10 23:48:00,
2013-06-10 19:53:00,70.8,65.4,29.81,ENE,70,1.0,2.0,83,0.00,,,0.11,WUHU216DAVISVP2,2013-06-10 23:53:00,
2013-06-10 19:58:00,69.9,65.5,29.81,ENE,70,0.0,1.0,86,0.00,,,0.11,WUHU216DAVISVP2,2013-06-10 23:58:00,
2013-06-10 20:03:00,69.2,65.2,29.81,ENE,71,1.0,1.0,87,0.00,,,0.11,WUHU216DAVISVP2,2013-06-11 00:03:00,
2013-06-10 20:08:00,68.6,65.2,29.81,ENE,70,0.0,1.0,89,0.00,,,0.11,WUHU216DAVISVP2,2013-06-11 00:08:00,
2013-06-10 20:13:00,68.3,65.3,29.82,ENE,71,0.0,1.0,90,0.00,,,0.11,WUHU216DAVISVP2,2013-06-11 00:13:00,
2013-06-10 20:18:00,68.1,65.1,29.82,ENE,70,0.0,1.0,90,0.00,,,0.11,WUHU216DAVISVP2,2013-06-11 00:18:00,
2013-06-10 20:23:00,67.8,64.7,29.82,ENE,70,0.0,1.0,90,0.00,,,0.11,WUHU216DAVISVP2,2013-06-11 00:23:00,
2013-06-10 20:28:00,67.6,64.9,29.82,ENE,70,0.0,1.0,91,0.00,,,0.11,WUHU216DAVISVP2,2013-06-11 00:28:00,
2013-06-10 20:33:00,67.3,64.6,29.82,ENE,70,0.0,0.0,91,0.00,,,0.11,WUHU216DAVISVP2,2013-06-11 00:33:00,
2013-06-10 20:38:00,67.1,64.4,29.82,ENE,70,0.0,0.0,91,0.00,,,0.11,WUHU216DAVISVP2,2013-06-11 00:38:00,
2013-06-10 20:43:00,67.1,64.7,29.83,ENE,70,0.0,0.0,92,0.00,,,0.11,WUHU216DAVISVP2,2013-06-11 00:43:00,
2013-06-10 20:48:00,66.9,64.5,29.83,ENE,70,0.0,0.0,92,0.01,,,0.12,WUHU216DAVISVP2,2013-06-11 00:48:00,
2013-06-10 20:53:00,66.7,64.6,29.83,West,280,6.0,7.0,93,0.02,,,0.13,WUHU216DAVISVP2,2013-06-11 00:53:00,
2013-06-10 20:58:00,67.3,64.6,29.84,WNW,293,3.0,7.0,91,0.02,,,0.13,WUHU216DAVISVP2,2013-06-11 00:58:00,
2013-06-10 21:03:00,67.0,63.9,29.84,WNW,299,1.5,7.0,90,0.02,,,0.13,WUHU216DAVISVP2,2013-06-11 01:03:00,
2013-06-10 21:08:00,66.6,63.9,29.83,NNW,346,0.0,7.0,91,0.02,,,0.13,WUHU216DAVISVP2,2013-06-11 01:08:00,
2013-06-10 21:13:00,66.3,63.6,29.83,ESE,120,1.0,7.0,91,0.02,,,0.13,WUHU216DAVISVP2,2013-06-11 01:13:00,
2013-06-10 21:18:00,66.2,63.5,29.83,SE,141,1.0,3.0,91,0.02,,,0.13,WUHU216DAVISVP2,2013-06-11 01:18:00,
2013-06-10 21:23:00,66.1,63.7,29.83,SE,141,1.0,2.0,92,0.02,,,0.13,WUHU216DAVISVP2,2013-06-11 01:23:00,
2013-06-10 21:28:00,65.9,63.5,29.84,SE,141,0.0,2.0,92,0.02,,,0.13,WUHU216DAVISVP2,2013-06-11 01:28:00,
2013-06-10 21:33:00,65.7,63.6,29.84,SE,141,0.0,1.0,93,0.02,,,0.13,WUHU216DAVISVP2,2013-06-11 01:33:00,
2013-06-10 21:38:00,65.5,63.4,29.84,SE,141,0.0,1.0,93,0.02,,,0.13,WUHU216DAVISVP2,2013-06-11 01:38:00,
2013-06-10 21:43:00,65.4,63.3,29.84,SE,141,1.0,1.0,93,0.02,,,0.13,WUHU216DAVISVP2,2013-06-11 01:43:00,
2013-06-10 21:48:00,65.0,62.9,29.84,SE,141,0.0,1.0,93,0.01,,,0.13,WUHU216DAVISVP2,2013-06-11 01:48:00,
2013-06-10 21:54:00,64.8,63.0,29.84,SE,141,0.0,1.0,94,0.00,,,0.13,WUHU216DAVISVP2,2013-06-11 01:54:00,
2013-06-10 21:59:00,64.6,62.8,29.84,SE,141,0.0,1.0,94,0.00,,,0.13,WUHU216DAVISVP2,2013-06-11 01:59:00,
2013-06-10 22:04:00,64.4,62.6,29.85,SE,141,1.0,1.0,94,0.00,,,0.13,WUHU216DAVISVP2,2013-06-11 02:04:00,
2013-06-10 22:09:00,64.2,62.4,29.85,SE,141,0.0,1.0,94,0.00,,,0.13,WUHU216DAVISVP2,2013-06-11 02:09:00,
2013-06-10 22:14:00,64.0,62.2,29.85,SE,141,0.0,1.0,94,0.00,,,0.13,WUHU216DAVISVP2,2013-06-11 02:14:00,
2013-06-10 22:19:00,63.9,62.1,29.85,SE,141,0.0,1.0,94,0.00,,,0.13,WUHU216DAVISVP2,2013-06-11 02:19:00,
2013-06-10 22:24:00,63.9,62.1,29.85,SE,141,0.0,1.0,94,0.00,,,0.13,WUHU216DAVISVP2,2013-06-11 02:24:00,
2013-06-10 22:29:00,63.7,61.9,29.85,SE,141,0.0,0.0,94,0.00,,,0.13,WUHU216DAVISVP2,2013-06-11 02:29:00,
2013-06-10 22:34:00,63.6,61.8,29.85,SE,141,0.0,0.0,94,0.00,,,0.13,WUHU216DAVISVP2,2013-06-11 02:34:00,
2013-06-10 22:39:00,63.6,61.8,29.86,SE,141,0.0,0.0,94,0.00,,,0.13,WUHU216DAVISVP2,2013-06-11 02:39:00,
2013-06-10 22:44:00,63.5,61.7,29.86,SE,141,0.0,0.0,94,0.00,,,0.13,WUHU216DAVISVP2,2013-06-11 02:44:00,
2013-06-10 22:49:00,63.7,61.9,29.86,SE,141,0.0,0.0,94,0.00,,,0.13,WUHU216DAVISVP2,2013-06-11 02:49:00,
2013-06-10 22:54:00,63.6,61.8,29.86,SE,141,0.0,0.0,94,0.00,,,0.13,WUHU216DAVISVP2,2013-06-11 02:54:00,
2013-06-10 22:59:00,63.5,61.7,29.86,SE,141,0.0,0.0,94,0.00,,,0.13,WUHU216DAVISVP2,2013-06-11 02:59:00,
2013-06-10 23:04:00,63.5,61.7,29.86,SE,141,0.0,0.0,94,0.00,,,0.13,WUHU216DAVISVP2,2013-06-11 03:04:00,
2013-06-10 23:09:00,63.7,62.2,29.86,SE,141,0.0,0.0,95,0.00,,,0.13,WUHU216DAVISVP2,2013-06-11 03:09:00,
2013-06-10 23:14:00,63.9,62.1,29.86,SE,141,0.0,0.0,94,0.00,,,0.13,WUHU216DAVISVP2,2013-06-11 03:14:00,
2013-06-10 23:19:00,63.9,62.4,29.85,SE,141,0.0,0.0,95,0.00,,,0.13,WUHU216DAVISVP2,2013-06-11 03:19:00,
2013-06-10 23:24:00,63.7,62.2,29.85,SE,141,0.0,0.0,95,0.00,,,0.13,WUHU216DAVISVP2,2013-06-11 03:24:00,
2013-06-10 23:29:00,63.7,62.2,29.85,SE,141,0.0,0.0,95,0.00,,,0.13,WUHU216DAVISVP2,2013-06-11 03:29:00,
2013-06-10 23:34:00,63.6,62.1,29.85,SE,141,0.0,0.0,95,0.00,,,0.13,WUHU216DAVISVP2,2013-06-11 03:34:00,
2013-06-10 23:39:00,63.5,62.0,29.85,SE,141,0.0,0.0,95,0.00,,,0.13,WUHU216DAVISVP2,2013-06-11 03:39:00,
2013-06-10 23:44:00,63.5,62.0,29.85,SE,141,0.0,0.0,95,0.00,,,0.13,WUHU216DAVISVP2,2013-06-11 03:44:00,
2013-06-10 23:49:00,63.6,62.1,29.85,SE,141,0.0,0.0,95,0.00,,,0.13,WUHU216DAVISVP2,2013-06-11 03:49:00,
2013-06-10 23:54:00,63.6,62.1,29.85,SE,141,0.0,0.0,95,0.00,,,0.13,WUHU216DAVISVP2,2013-06-11 03:54:00,
2013-06-10 23:59:00,63.6,62.1,29.85,SE,141,1.0,1.0,95,0.00,,,0.13,WUHU216DAVISVP2,2013-06-11 03:59:00,